sensor_id;sensor_type;location;lat;lon;timestamp;pressure;altitude;pressure_sealevel;temperature;humidity
10587;BME280;5341;47.606;7.576;2023-02-24T00:02:13;98354.41;;;13.15;63.10
10587;BME280;5341;47.606;7.576;2023-02-24T00:04:44;98352.53;;;13.16;63.20
10587;BME280;5341;47.606;7.576;2023-02-24T00:07:16;98357.31;;;13.14;62.86
10587;BME280;5341;47.606;7.576;2023-02-24T00:09:45;98352.75;;;13.14;63.27
10587;BME280;5341;47.606;7.576;2023-02-24T00:12:15;98339.34;;;13.14;63.03
10587;BME280;5341;47.606;7.576;2023-02-24T00:14:46;98337.69;;;13.13;62.89
10587;BME280;5341;47.606;7.576;2023-02-24T00:17:13;98345.53;;;13.15;63.02
10587;BME280;5341;47.606;7.576;2023-02-24T00:19:40;98344.50;;;13.16;63.03
10587;BME280;5341;47.606;7.576;2023-02-24T00:22:09;98348.22;;;13.15;62.88
10587;BME280;5341;47.606;7.576;2023-02-24T00:24:37;98343.06;;;13.13;63.07
10587;BME280;5341;47.606;7.576;2023-02-24T00:27:05;98340.38;;;13.13;62.95
10587;BME280;5341;47.606;7.576;2023-02-24T00:29:36;98350.06;;;13.14;63.02
10587;BME280;5341;47.606;7.576;2023-02-24T00:32:07;98350.06;;;13.14;63.21
10587;BME280;5341;47.606;7.576;2023-02-24T00:34:37;98351.09;;;13.13;62.77
10587;BME280;5341;47.606;7.576;2023-02-24T00:37:05;98346.56;;;13.14;62.90
10587;BME280;5341;47.606;7.576;2023-02-24T00:39:33;98343.06;;;13.13;62.90
10587;BME280;5341;47.606;7.576;2023-02-24T00:42:02;98337.91;;;13.12;63.13
10587;BME280;5341;47.606;7.576;2023-02-24T00:44:31;98345.75;;;13.13;63.03
10587;BME280;5341;47.606;7.576;2023-02-24T00:46:59;98345.75;;;13.13;63.00
10587;BME280;5341;47.606;7.576;2023-02-24T00:49:30;98344.91;;;13.13;62.78
10587;BME280;5341;47.606;7.576;2023-02-24T00:51:59;98344.09;;;13.12;62.40
10587;BME280;5341;47.606;7.576;2023-02-24T00:54:30;98343.28;;;13.12;62.84
10587;BME280;5341;47.606;7.576;2023-02-24T00:56:58;98337.91;;;13.12;63.08
10587;BME280;5341;47.606;7.576;2023-02-24T00:59:27;98339.75;;;13.11;62.98
10587;BME280;5341;47.606;7.576;2023-02-24T01:01:56;98338.13;;;13.10;63.01
10587;BME280;5341;47.606;7.576;2023-02-24T01:04:26;98329.44;;;13.08;63.08
10587;BME280;5341;47.606;7.576;2023-02-24T01:06:57;98334.81;;;13.08;62.80
10587;BME280;5341;47.606;7.576;2023-02-24T01:09:29;98336.66;;;13.08;62.78
10587;BME280;5341;47.606;7.576;2023-02-24T01:11:57;98334.16;;;13.06;63.02
10587;BME280;5341;47.606;7.576;2023-02-24T01:14:44;98336.03;;;13.06;63.14
10587;BME280;5341;47.606;7.576;2023-02-24T01:17:13;98332.53;;;13.05;62.91
10587;BME280;5341;47.606;7.576;2023-02-24T01:19:42;98335.22;;;13.05;62.96
10587;BME280;5341;47.606;7.576;2023-02-24T01:22:17;98329.84;;;13.05;63.00
10587;BME280;5341;47.606;7.576;2023-02-24T01:24:47;98335.22;;;13.05;62.98
10587;BME280;5341;47.606;7.576;2023-02-24T01:27:16;98325.50;;;13.04;62.72
10587;BME280;5341;47.606;7.576;2023-02-24T01:29:45;98326.53;;;13.03;62.89
10587;BME280;5341;47.606;7.576;2023-02-24T01:32:15;98320.34;;;13.03;62.93
10587;BME280;5341;47.606;7.576;2023-02-24T01:34:45;98313.34;;;13.02;62.68
10587;BME280;5341;47.606;7.576;2023-02-24T01:37:13;98313.34;;;13.02;62.66
10587;BME280;5341;47.606;7.576;2023-02-24T01:39:46;98312.50;;;13.01;63.07
10587;BME280;5341;47.606;7.576;2023-02-24T01:42:15;98312.50;;;13.01;63.05
10587;BME280;5341;47.606;7.576;2023-02-24T01:45:11;98306.31;;;13.01;62.77
10587;BME280;5341;47.606;7.576;2023-02-24T01:47:40;98302.81;;;13.00;62.81
10587;BME280;5341;47.606;7.576;2023-02-24T01:50:09;98305.50;;;13.00;62.65
10587;BME280;5341;47.606;7.576;2023-02-24T01:52:42;98309.22;;;12.99;62.84
10587;BME280;5341;47.606;7.576;2023-02-24T01:55:17;98308.38;;;12.99;62.98
10587;BME280;5341;47.606;7.576;2023-02-24T01:57:49;98316.44;;;12.99;62.70
10587;BME280;5341;47.606;7.576;2023-02-24T02:00:18;98321.19;;;12.97;62.93
10587;BME280;5341;47.606;7.576;2023-02-24T02:03:14;98321.19;;;12.97;63.10
10587;BME280;5341;47.606;7.576;2023-02-24T02:05:46;98317.88;;;12.95;62.77
10587;BME280;5341;47.606;7.576;2023-02-24T02:08:17;98317.88;;;12.95;62.80
10587;BME280;5341;47.606;7.576;2023-02-24T02:10:47;98311.47;;;12.96;62.89
10587;BME280;5341;47.606;7.576;2023-02-24T02:13:17;98311.47;;;12.96;62.73
10587;BME280;5341;47.606;7.576;2023-02-24T02:15:55;98306.09;;;12.96;62.71
10587;BME280;5341;47.606;7.576;2023-02-24T02:18:35;98315.19;;;12.95;63.05
10587;BME280;5341;47.606;7.576;2023-02-24T02:24:21;98304.66;;;12.93;63.11
10587;BME280;5341;47.606;7.576;2023-02-24T02:27:16;98310.03;;;12.93;62.88
10587;BME280;5341;47.606;7.576;2023-02-24T02:30:10;98311.06;;;12.92;62.90
10587;BME280;5341;47.606;7.576;2023-02-24T02:33:08;98299.50;;;12.91;63.06
10587;BME280;5341;47.606;7.576;2023-02-24T02:35:53;98292.50;;;12.90;62.99
10587;BME280;5341;47.606;7.576;2023-02-24T02:38:29;98300.53;;;12.90;63.16
10587;BME280;5341;47.606;7.576;2023-02-24T02:41:05;98302.41;;;12.90;63.02
10587;BME280;5341;47.606;7.576;2023-02-24T02:43:40;98296.22;;;12.89;62.77
10587;BME280;5341;47.606;7.576;2023-02-24T02:46:12;98302.63;;;12.88;62.68
10587;BME280;5341;47.606;7.576;2023-02-24T02:48:47;98303.44;;;12.89;62.67
10587;BME280;5341;47.606;7.576;2023-02-24T02:51:20;98295.59;;;12.87;62.79
10587;BME280;5341;47.606;7.576;2023-02-24T02:53:57;98299.09;;;12.88;63.14
10587;BME280;5341;47.606;7.576;2023-02-24T02:56:29;98294.78;;;12.87;63.02
10587;BME280;5341;47.606;7.576;2023-02-24T02:59:01;98290.25;;;12.87;62.84
10587;BME280;5341;47.606;7.576;2023-02-24T03:01:35;98288.59;;;12.86;63.05
10587;BME280;5341;47.606;7.576;2023-02-24T03:04:07;98280.75;;;12.85;62.67
10587;BME280;5341;47.606;7.576;2023-02-24T03:06:42;98279.06;;;12.84;62.54
10587;BME280;5341;47.606;7.576;2023-02-24T03:09:16;98276.81;;;12.81;62.49
10587;BME280;5341;47.606;7.576;2023-02-24T03:11:50;98279.91;;;12.78;62.64
10587;BME280;5341;47.606;7.576;2023-02-24T03:14:23;98269.19;;;12.78;62.45
10587;BME280;5341;47.606;7.576;2023-02-24T03:16:54;98280.75;;;12.78;62.51
10587;BME280;5341;47.606;7.576;2023-02-24T03:19:28;98274.56;;;12.78;62.60
10587;BME280;5341;47.606;7.576;2023-02-24T03:22:03;98280.97;;;12.77;62.80
10587;BME280;5341;47.606;7.576;2023-02-24T03:24:33;98279.91;;;12.78;62.90
10587;BME280;5341;47.606;7.576;2023-02-24T03:27:08;98267.53;;;12.77;63.03
10587;BME280;5341;47.606;7.576;2023-02-24T03:29:42;98272.91;;;12.77;62.89
10587;BME280;5341;47.606;7.576;2023-02-24T03:32:19;98265.91;;;12.76;62.82
10587;BME280;5341;47.606;7.576;2023-02-24T03:34:54;98274.16;;;12.74;62.79
10587;BME280;5341;47.606;7.576;2023-02-24T03:37:26;98274.16;;;12.74;62.64
10587;BME280;5341;47.606;7.576;2023-02-24T03:39:58;98275.19;;;12.73;62.31
10587;BME280;5341;47.606;7.576;2023-02-24T03:42:34;98275.19;;;12.73;62.53
10587;BME280;5341;47.606;7.576;2023-02-24T03:45:07;98263.81;;;12.71;62.75
10587;BME280;5341;47.606;7.576;2023-02-24T03:47:35;98270.00;;;12.72;62.74
10587;BME280;5341;47.606;7.576;2023-02-24T03:50:10;98260.31;;;12.71;62.68
10587;BME280;5341;47.606;7.576;2023-02-24T03:52:45;98261.34;;;12.70;62.84
10587;BME280;5341;47.606;7.576;2023-02-24T03:55:25;98262.38;;;12.69;62.50
10587;BME280;5341;47.606;7.576;2023-02-24T03:58:07;98266.09;;;12.68;62.68
10587;BME280;5341;47.606;7.576;2023-02-24T04:00:49;98259.91;;;12.67;62.79
10587;BME280;5341;47.606;7.576;2023-02-24T04:03:27;98261.56;;;12.68;62.88
10587;BME280;5341;47.606;7.576;2023-02-24T04:06:14;98255.38;;;12.68;62.63
10587;BME280;5341;47.606;7.576;2023-02-24T04:08:50;98256.63;;;12.65;62.39
10587;BME280;5341;47.606;7.576;2023-02-24T04:11:23;98254.16;;;12.64;62.66
10587;BME280;5341;47.606;7.576;2023-02-24T04:13:57;98249.19;;;12.60;62.24
10587;BME280;5341;47.606;7.576;2023-02-24T04:16:34;98253.91;;;12.58;62.29
10587;BME280;5341;47.606;7.576;2023-02-24T04:19:08;98249.81;;;12.56;62.29
10587;BME280;5341;47.606;7.576;2023-02-24T04:21:40;98246.09;;;12.57;62.61
10587;BME280;5341;47.606;7.576;2023-02-24T04:24:18;98246.09;;;12.57;62.49
10587;BME280;5341;47.606;7.576;2023-02-24T04:26:49;98246.28;;;12.55;62.32
10587;BME280;5341;47.606;7.576;2023-02-24T04:29:21;98247.13;;;12.56;62.38
10587;BME280;5341;47.606;7.576;2023-02-24T04:31:53;98239.06;;;12.56;62.51
10587;BME280;5341;47.606;7.576;2023-02-24T04:34:24;98247.94;;;12.56;62.62
10587;BME280;5341;47.606;7.576;2023-02-24T04:36:58;98247.13;;;12.56;62.67
10587;BME280;5341;47.606;7.576;2023-02-24T04:39:31;98246.09;;;12.57;62.71
10587;BME280;5341;47.606;7.576;2023-02-24T04:42:08;98245.25;;;12.56;62.50
10587;BME280;5341;47.606;7.576;2023-02-24T04:44:36;98239.91;;;12.56;62.62
10587;BME280;5341;47.606;7.576;2023-02-24T04:47:04;98235.34;;;12.57;62.27
10587;BME280;5341;47.606;7.576;2023-02-24T04:49:33;98240.72;;;12.57;62.43
10587;BME280;5341;47.606;7.576;2023-02-24T04:52:01;98238.03;;;12.57;62.64
10587;BME280;5341;47.606;7.576;2023-02-24T04:54:30;98231.66;;;12.58;62.69
10587;BME280;5341;47.606;7.576;2023-02-24T04:57:00;98224.63;;;12.57;62.48
10587;BME280;5341;47.606;7.576;2023-02-24T04:59:28;98230.81;;;12.57;62.70
10587;BME280;5341;47.606;7.576;2023-02-24T05:01:56;98221.13;;;12.56;62.37
10587;BME280;5341;47.606;7.576;2023-02-24T05:04:27;98221.94;;;12.57;62.92
10587;BME280;5341;47.606;7.576;2023-02-24T05:06:57;98219.25;;;12.57;62.48
10587;BME280;5341;47.606;7.576;2023-02-24T05:09:25;98213.06;;;12.56;62.83
10587;BME280;5341;47.606;7.576;2023-02-24T05:11:56;98208.53;;;12.57;62.34
10587;BME280;5341;47.606;7.576;2023-02-24T05:14:25;98211.44;;;12.55;62.57
10587;BME280;5341;47.606;7.576;2023-02-24T05:16:53;98200.91;;;12.54;62.04
10587;BME280;5341;47.606;7.576;2023-02-24T05:19:26;98198.44;;;12.52;61.99
10587;BME280;5341;47.606;7.576;2023-02-24T05:22:12;98197.84;;;12.50;62.76
10587;BME280;5341;47.606;7.576;2023-02-24T05:24:42;98190.81;;;12.49;62.35
10587;BME280;5341;47.606;7.576;2023-02-24T05:27:14;98199.69;;;12.50;62.64
10587;BME280;5341;47.606;7.576;2023-02-24T05:29:42;98196.41;;;12.48;62.45
10587;BME280;5341;47.606;7.576;2023-02-24T05:32:10;98191.22;;;12.46;62.26
10587;BME280;5341;47.606;7.576;2023-02-24T05:34:37;98187.72;;;12.46;62.18
10587;BME280;5341;47.606;7.576;2023-02-24T05:37:07;98186.28;;;12.43;62.51
10587;BME280;5341;47.606;7.576;2023-02-24T05:39:35;98188.34;;;12.41;62.07
10587;BME280;5341;47.606;7.576;2023-02-24T05:42:03;98180.50;;;12.40;62.11
10587;BME280;5341;47.606;7.576;2023-02-24T05:44:33;98168.34;;;12.37;61.91
10587;BME280;5341;47.606;7.576;2023-02-24T05:47:02;98158.84;;;12.35;61.98
10587;BME280;5341;47.606;7.576;2023-02-24T05:49:31;98156.16;;;12.35;62.43
10587;BME280;5341;47.606;7.576;2023-02-24T05:52:03;98156.38;;;12.33;62.26
10587;BME280;5341;47.606;7.576;2023-02-24T05:54:33;98160.91;;;12.32;62.35
10587;BME280;5341;47.606;7.576;2023-02-24T05:57:02;98167.31;;;12.31;62.02
10587;BME280;5341;47.606;7.576;2023-02-24T05:59:30;98163.59;;;12.32;62.41
10587;BME280;5341;47.606;7.576;2023-02-24T06:02:07;98166.28;;;12.32;62.11
10587;BME280;5341;47.606;7.576;2023-02-24T06:04:37;98158.25;;;12.32;62.38
10587;BME280;5341;47.606;7.576;2023-02-24T06:07:12;98151.00;;;12.33;62.46
10587;BME280;5341;47.606;7.576;2023-02-24T06:09:43;98155.75;;;12.31;61.92
10587;BME280;5341;47.606;7.576;2023-02-24T06:12:15;98160.72;;;12.27;61.50
10587;BME280;5341;47.606;7.576;2023-02-24T06:14:43;98169.19;;;12.24;62.06
10587;BME280;5341;47.606;7.576;2023-02-24T06:17:13;98161.53;;;12.21;61.62
10587;BME280;5341;47.606;7.576;2023-02-24T06:19:42;98175.97;;;12.20;61.89
10587;BME280;5341;47.606;7.576;2023-02-24T06:22:12;98172.69;;;12.18;62.06
10587;BME280;5341;47.606;7.576;2023-02-24T06:24:39;98163.22;;;12.16;62.06
10587;BME280;5341;47.606;7.576;2023-02-24T06:27:09;98175.38;;;12.18;62.09
10587;BME280;5341;47.606;7.576;2023-02-24T06:29:42;98161.97;;;12.18;62.25
10587;BME280;5341;47.606;7.576;2023-02-24T06:32:12;98150.41;;;12.18;62.11
10587;BME280;5341;47.606;7.576;2023-02-24T06:34:39;98142.38;;;12.18;62.18
10587;BME280;5341;47.606;7.576;2023-02-24T06:37:10;98145.06;;;12.18;61.95
10587;BME280;5341;47.606;7.576;2023-02-24T06:39:38;98144.22;;;12.17;62.09
10587;BME280;5341;47.606;7.576;2023-02-24T06:42:06;98147.94;;;12.16;61.59
10587;BME280;5341;47.606;7.576;2023-02-24T06:44:36;98151.88;;;12.14;61.75
10587;BME280;5341;47.606;7.576;2023-02-24T06:47:05;98154.56;;;12.14;62.01
10587;BME280;5341;47.606;7.576;2023-02-24T06:49:34;98155.59;;;12.13;61.95
10587;BME280;5341;47.606;7.576;2023-02-24T06:52:02;98151.25;;;12.12;61.85
10587;BME280;5341;47.606;7.576;2023-02-24T06:54:30;98154.94;;;12.11;62.26
10587;BME280;5341;47.606;7.576;2023-02-24T06:57:01;98146.91;;;12.11;62.05
10587;BME280;5341;47.606;7.576;2023-02-24T06:59:29;98153.09;;;12.11;62.16
10587;BME280;5341;47.606;7.576;2023-02-24T07:01:58;98170.03;;;12.12;61.92
10587;BME280;5341;47.606;7.576;2023-02-24T07:04:26;98169.38;;;12.10;62.00
10587;BME280;5341;47.606;7.576;2023-02-24T07:06:56;98164.66;;;12.12;61.82
10587;BME280;5341;47.606;7.576;2023-02-24T07:09:28;98157.63;;;12.11;61.90
10587;BME280;5341;47.606;7.576;2023-02-24T07:11:57;98152.25;;;12.11;61.58
10587;BME280;5341;47.606;7.576;2023-02-24T07:14:28;98150.84;;;12.08;61.99
10587;BME280;5341;47.606;7.576;2023-02-24T07:16:57;98140.13;;;12.08;62.10
10587;BME280;5341;47.606;7.576;2023-02-24T07:19:26;98130.00;;;12.10;62.00
10587;BME280;5341;47.606;7.576;2023-02-24T07:21:58;98124.66;;;12.10;62.21
10587;BME280;5341;47.606;7.576;2023-02-24T07:24:29;98127.31;;;12.10;61.77
10587;BME280;5341;47.606;7.576;2023-02-24T07:27:03;98132.50;;;12.12;62.03
10587;BME280;5341;47.606;7.576;2023-02-24T07:29:32;98136.81;;;12.13;62.31
10587;BME280;5341;47.606;7.576;2023-02-24T07:32:02;98134.16;;;12.13;61.94
10587;BME280;5341;47.606;7.576;2023-02-24T07:34:31;98134.75;;;12.15;61.78
10587;BME280;5341;47.606;7.576;2023-02-24T07:37:00;98134.16;;;12.13;62.15
10587;BME280;5341;47.606;7.576;2023-02-24T07:39:33;98136.00;;;12.12;61.97
10587;BME280;5341;47.606;7.576;2023-02-24T07:42:01;98129.63;;;12.13;62.02
10587;BME280;5341;47.606;7.576;2023-02-24T07:44:37;98133.94;;;12.14;62.28
10587;BME280;5341;47.606;7.576;2023-02-24T07:47:05;98128.38;;;12.16;62.26
10587;BME280;5341;47.606;7.576;2023-02-24T07:49:33;98117.22;;;12.19;62.02
10587;BME280;5341;47.606;7.576;2023-02-24T07:52:02;98123.41;;;12.19;62.28
10587;BME280;5341;47.606;7.576;2023-02-24T07:54:34;98120.50;;;12.21;61.90
10587;BME280;5341;47.606;7.576;2023-02-24T07:57:01;98107.94;;;12.21;62.13
10587;BME280;5341;47.606;7.576;2023-02-24T07:59:30;98112.25;;;12.22;61.93
10587;BME280;5341;47.606;7.576;2023-02-24T08:01:58;98090.63;;;12.24;61.95
10587;BME280;5341;47.606;7.576;2023-02-24T08:04:29;98094.97;;;12.25;62.14
10587;BME280;5341;47.606;7.576;2023-02-24T08:06:58;98098.47;;;12.25;62.12
10587;BME280;5341;47.606;7.576;2023-02-24T08:09:30;98101.75;;;12.27;62.06
10587;BME280;5341;47.606;7.576;2023-02-24T08:12:13;98105.03;;;12.29;62.19
10587;BME280;5341;47.606;7.576;2023-02-24T08:14:43;98097.22;;;12.28;62.35
10587;BME280;5341;47.606;7.576;2023-02-24T08:17:16;98100.50;;;12.30;62.25
10587;BME280;5341;47.606;7.576;2023-02-24T08:19:46;98095.53;;;12.33;62.33
10587;BME280;5341;47.606;7.576;2023-02-24T08:22:14;98091.63;;;12.36;62.04
10587;BME280;5341;47.606;7.576;2023-02-24T08:24:53;98086.06;;;12.38;62.39
10587;BME280;5341;47.606;7.576;2023-02-24T08:27:22;98082.56;;;12.37;61.87
10587;BME280;5341;47.606;7.576;2023-02-24T08:29:52;98071.84;;;12.37;61.83
10587;BME280;5341;47.606;7.576;2023-02-24T08:32:27;98065.84;;;12.35;61.77
10587;BME280;5341;47.606;7.576;2023-02-24T08:34:59;98062.53;;;12.33;62.21
10587;BME280;5341;47.606;7.576;2023-02-24T08:37:28;98065.22;;;12.33;62.13
10587;BME280;5341;47.606;7.576;2023-02-24T08:40:08;98069.53;;;12.34;61.86
10587;BME280;5341;47.606;7.576;2023-02-24T08:42:58;98077.59;;;12.34;62.01
10587;BME280;5341;47.606;7.576;2023-02-24T08:45:41;98070.38;;;12.35;62.28
10587;BME280;5341;47.606;7.576;2023-02-24T08:48:11;98073.69;;;12.37;62.31
10587;BME280;5341;47.606;7.576;2023-02-24T08:50:53;98079.66;;;12.39;62.09
10587;BME280;5341;47.606;7.576;2023-02-24T08:53:21;98074.09;;;12.40;61.97
10587;BME280;5341;47.606;7.576;2023-02-24T08:55:57;98072.84;;;12.43;62.30
10587;BME280;5341;47.606;7.576;2023-02-24T08:58:25;98071.78;;;12.44;61.75
10587;BME280;5341;47.606;7.576;2023-02-24T09:00:53;98061.47;;;12.47;62.09
10587;BME280;5341;47.606;7.576;2023-02-24T09:03:24;98054.06;;;12.49;61.75
10587;BME280;5341;47.606;7.576;2023-02-24T09:06:11;98067.25;;;12.51;62.16
10587;BME280;5341;47.606;7.576;2023-02-24T09:08:43;98054.22;;;12.54;61.78
10587;BME280;5341;47.606;7.576;2023-02-24T09:11:14;98054.00;;;12.56;61.69
10587;BME280;5341;47.606;7.576;2023-02-24T09:13:44;98047.81;;;12.55;61.55
10587;BME280;5341;47.606;7.576;2023-02-24T09:16:20;98045.97;;;12.56;62.25
10587;BME280;5341;47.606;7.576;2023-02-24T09:18:49;98042.03;;;12.58;62.16
10587;BME280;5341;47.606;7.576;2023-02-24T09:21:37;98032.53;;;12.63;61.96
10587;BME280;5341;47.606;7.576;2023-02-24T09:24:24;98023.25;;;12.65;61.70
10587;BME280;5341;47.606;7.576;2023-02-24T09:26:54;98035.19;;;12.69;61.95
10587;BME280;5341;47.606;7.576;2023-02-24T09:29:23;98031.88;;;12.74;62.11
10587;BME280;5341;47.606;7.576;2023-02-24T09:32:01;98031.22;;;12.78;62.35
10587;BME280;5341;47.606;7.576;2023-02-24T09:34:33;98032.03;;;12.85;62.19
10587;BME280;5341;47.606;7.576;2023-02-24T09:37:01;98031.13;;;12.98;63.19
10587;BME280;5341;47.606;7.576;2023-02-24T09:39:30;98018.41;;;13.18;62.56
10587;BME280;5341;47.606;7.576;2023-02-24T09:42:22;98019.38;;;13.31;62.10
10587;BME280;5341;47.606;7.576;2023-02-24T09:45:02;98022.00;;;13.37;61.65
10587;BME280;5341;47.606;7.576;2023-02-24T09:47:39;98020.53;;;13.41;61.86
10587;BME280;5341;47.606;7.576;2023-02-24T09:50:26;98015.25;;;13.53;61.47
10587;BME280;5341;47.606;7.576;2023-02-24T09:53:13;98005.91;;;13.62;61.59
10587;BME280;5341;47.606;7.576;2023-02-24T09:55:47;98007.28;;;13.71;61.62
10587;BME280;5341;47.606;7.576;2023-02-24T09:58:38;98007.59;;;13.82;61.97
10587;BME280;5341;47.606;7.576;2023-02-24T10:01:28;98014.53;;;13.89;61.81
10587;BME280;5341;47.606;7.576;2023-02-24T10:04:02;98011.41;;;13.92;61.20
10587;BME280;5341;47.606;7.576;2023-02-24T10:06:38;98003.94;;;13.94;61.53
10587;BME280;5341;47.606;7.576;2023-02-24T10:09:15;97998.56;;;13.94;61.45
10587;BME280;5341;47.606;7.576;2023-02-24T10:11:51;98001.41;;;13.99;61.34
10587;BME280;5341;47.606;7.576;2023-02-24T10:14:31;98001.34;;;14.06;61.33
10587;BME280;5341;47.606;7.576;2023-02-24T10:17:11;97994.84;;;14.14;61.57
10587;BME280;5341;47.606;7.576;2023-02-24T10:19:51;97995.38;;;14.22;61.84
10587;BME280;5341;47.606;7.576;2023-02-24T10:22:33;97992.16;;;14.32;61.86
10587;BME280;5341;47.606;7.576;2023-02-24T10:25:29;97988.31;;;14.40;61.78
10587;BME280;5341;47.606;7.576;2023-02-24T10:28:05;97985.38;;;14.48;62.06
10587;BME280;5341;47.606;7.576;2023-02-24T10:30:48;97984.03;;;14.57;62.28
10587;BME280;5341;47.606;7.576;2023-02-24T10:33:31;97985.38;;;14.66;62.52
10587;BME280;5341;47.606;7.576;2023-02-24T10:36:09;97983.03;;;14.70;60.88
10587;BME280;5341;47.606;7.576;2023-02-24T10:38:37;97982.88;;;14.64;60.52
10587;BME280;5341;47.606;7.576;2023-02-24T10:41:11;97985.19;;;14.61;59.97
10587;BME280;5341;47.606;7.576;2023-02-24T10:43:39;97976.53;;;14.59;59.71
10587;BME280;5341;47.606;7.576;2023-02-24T10:46:26;97971.28;;;14.64;59.62
10587;BME280;5341;47.606;7.576;2023-02-24T10:48:59;97975.84;;;14.63;59.41
10587;BME280;5341;47.606;7.576;2023-02-24T10:51:34;97963.38;;;14.69;60.14
10587;BME280;5341;47.606;7.576;2023-02-24T10:54:10;97962.22;;;14.77;60.42
10587;BME280;5341;47.606;7.576;2023-02-24T10:57:03;97957.91;;;14.87;60.64
10587;BME280;5341;47.606;7.576;2023-02-24T10:59:45;97952.56;;;14.99;60.52
10587;BME280;5341;47.606;7.576;2023-02-24T11:02:54;97949.56;;;15.07;59.71
10587;BME280;5341;47.606;7.576;2023-02-24T11:05:35;97948.03;;;15.11;59.04
10587;BME280;5341;47.606;7.576;2023-02-24T11:08:30;97946.06;;;15.18;59.66
10587;BME280;5341;47.606;7.576;2023-02-24T11:11:22;97941.34;;;15.14;58.52
10587;BME280;5341;47.606;7.576;2023-02-24T11:13:56;97936.44;;;15.11;58.93
10587;BME280;5341;47.606;7.576;2023-02-24T11:16:47;97934.25;;;15.19;59.57
10587;BME280;5341;47.606;7.576;2023-02-24T11:19:40;97931.06;;;15.22;58.82
10587;BME280;5341;47.606;7.576;2023-02-24T11:22:11;97923.47;;;15.19;58.24
10587;BME280;5341;47.606;7.576;2023-02-24T11:24:43;97926.63;;;15.16;58.08
10587;BME280;5341;47.606;7.576;2023-02-24T11:27:12;97926.63;;;15.05;57.51
10587;BME280;5341;47.606;7.576;2023-02-24T11:29:47;97913.72;;;14.95;57.93
10587;BME280;5341;47.606;7.576;2023-02-24T11:32:42;97906.53;;;14.89;57.96
10587;BME280;5341;47.606;7.576;2023-02-24T11:35:22;97898.03;;;14.92;58.95
10587;BME280;5341;47.606;7.576;2023-02-24T11:37:59;97902.16;;;15.06;58.66
10587;BME280;5341;47.606;7.576;2023-02-24T11:40:32;97886.09;;;15.23;59.07
10587;BME280;5341;47.606;7.576;2023-02-24T11:43:05;97874.84;;;15.38;59.35
10587;BME280;5341;47.606;7.576;2023-02-24T11:45:40;97884.13;;;15.53;59.44
10587;BME280;5341;47.606;7.576;2023-02-24T11:48:12;97869.84;;;15.65;58.46
10587;BME280;5341;47.606;7.576;2023-02-24T11:50:46;97864.69;;;15.75;58.53
10587;BME280;5341;47.606;7.576;2023-02-24T11:53:24;97865.69;;;15.86;58.40
10587;BME280;5341;47.606;7.576;2023-02-24T11:55:56;97862.97;;;15.97;58.69
10587;BME280;5341;47.606;7.576;2023-02-24T11:58:31;97844.78;;;16.04;58.43
10587;BME280;5341;47.606;7.576;2023-02-24T12:01:07;97851.91;;;16.10;57.78
10587;BME280;5341;47.606;7.576;2023-02-24T12:03:39;97847.44;;;16.16;57.16
10587;BME280;5341;47.606;7.576;2023-02-24T12:06:17;97839.44;;;16.21;57.69
10587;BME280;5341;47.606;7.576;2023-02-24T12:08:50;97837.44;;;16.28;56.54
10587;BME280;5341;47.606;7.576;2023-02-24T12:11:37;97824.63;;;16.35;56.86
10587;BME280;5341;47.606;7.576;2023-02-24T12:14:17;97818.81;;;16.44;57.83
10587;BME280;5341;47.606;7.576;2023-02-24T12:16:53;97826.53;;;16.52;57.16
10587;BME280;5341;47.606;7.576;2023-02-24T12:19:27;97812.41;;;16.61;57.70
10587;BME280;5341;47.606;7.576;2023-02-24T12:22:03;97813.63;;;16.70;57.39
10587;BME280;5341;47.606;7.576;2023-02-24T12:24:34;97813.56;;;16.82;57.44
10587;BME280;5341;47.606;7.576;2023-02-24T12:27:13;97815.84;;;16.90;56.67
10587;BME280;5341;47.606;7.576;2023-02-24T12:30:15;97805.72;;;16.97;57.16
10587;BME280;5341;47.606;7.576;2023-02-24T12:33:13;97806.34;;;17.05;56.50
10587;BME280;5341;47.606;7.576;2023-02-24T12:35:50;97803.81;;;17.15;56.38
10587;BME280;5341;47.606;7.576;2023-02-24T12:38:35;97796.16;;;17.28;56.10
10587;BME280;5341;47.606;7.576;2023-02-24T12:41:18;97789.84;;;17.40;55.10
10587;BME280;5341;47.606;7.576;2023-02-24T12:43:55;97787.59;;;17.53;54.77
10587;BME280;5341;47.606;7.576;2023-02-24T12:46:30;97780.94;;;17.61;55.10
10587;BME280;5341;47.606;7.576;2023-02-24T12:49:09;97779.91;;;17.67;55.16
10587;BME280;5341;47.606;7.576;2023-02-24T12:51:51;97772.16;;;17.71;54.84
10587;BME280;5341;47.606;7.576;2023-02-24T12:54:28;97769.75;;;17.74;54.75
10587;BME280;5341;47.606;7.576;2023-02-24T12:57:06;97770.59;;;17.75;54.42
10587;BME280;5341;47.606;7.576;2023-02-24T12:59:39;97774.41;;;17.79;54.32
10587;BME280;5341;47.606;7.576;2023-02-24T13:02:12;97762.03;;;17.83;54.39
10587;BME280;5341;47.606;7.576;2023-02-24T13:04:52;97759.88;;;17.85;54.17
10587;BME280;5341;47.606;7.576;2023-02-24T13:07:43;97753.44;;;17.91;52.83
10587;BME280;5341;47.606;7.576;2023-02-24T13:10:28;97754.13;;;18.03;52.70
10587;BME280;5341;47.606;7.576;2023-02-24T13:13:07;97746.59;;;18.05;52.52
10587;BME280;5341;47.606;7.576;2023-02-24T13:15:36;97746.00;;;18.03;52.68
10587;BME280;5341;47.606;7.576;2023-02-24T13:18:22;97730.28;;;18.00;53.43
10587;BME280;5341;47.606;7.576;2023-02-24T13:21:02;97736.50;;;18.01;53.65
10587;BME280;5341;47.606;7.576;2023-02-24T13:23:29;97727.06;;;18.03;54.10
10587;BME280;5341;47.606;7.576;2023-02-24T13:25:59;97724.16;;;18.10;53.85
10587;BME280;5341;47.606;7.576;2023-02-24T13:28:27;97723.94;;;18.16;53.22
10587;BME280;5341;47.606;7.576;2023-02-24T13:30:59;97719.16;;;18.24;53.21
10587;BME280;5341;47.606;7.576;2023-02-24T13:33:30;97715.44;;;18.30;52.66
10587;BME280;5341;47.606;7.576;2023-02-24T13:36:11;97705.16;;;18.32;52.56
10587;BME280;5341;47.606;7.576;2023-02-24T13:38:40;97705.72;;;18.34;52.78
10587;BME280;5341;47.606;7.576;2023-02-24T13:41:35;97705.44;;;18.35;51.98
10587;BME280;5341;47.606;7.576;2023-02-24T13:44:19;97692.19;;;18.34;53.39
10587;BME280;5341;47.606;7.576;2023-02-24T13:46:58;97697.34;;;18.35;53.50
10587;BME280;5341;47.606;7.576;2023-02-24T13:49:35;97689.75;;;18.37;53.78
10587;BME280;5341;47.606;7.576;2023-02-24T13:52:16;97689.50;;;18.39;53.86